createdAt,value
2022-09-12T00:01:10.520Z,78.48
2022-09-12T00:03:38.852Z,79.01
2022-09-12T00:06:11.976Z,79.31
2022-09-12T00:08:38.827Z,79.51
2022-09-12T00:11:09.033Z,79.60
2022-09-12T00:13:41.488Z,79.35
2022-09-12T00:16:15.878Z,78.79
2022-09-12T00:18:42.735Z,78.75
2022-09-12T00:21:09.631Z,78.33
2022-09-12T00:23:36.371Z,79.16
2022-09-12T00:26:06.127Z,79.40
2022-09-12T00:28:34.884Z,82.27
2022-09-12T00:31:06.096Z,82.55
2022-09-12T00:33:33.308Z,81.98
2022-09-12T00:36:00.122Z,80.87
2022-09-12T00:38:26.942Z,80.61
2022-09-12T00:40:53.762Z,79.78
2022-09-12T00:43:34.228Z,79.42
2022-09-12T00:46:12.919Z,78.60
2022-09-12T00:48:45.329Z,78.49
2022-09-12T00:51:13.278Z,78.70
2022-09-12T00:53:43.742Z,79.89
2022-09-12T00:56:14.860Z,80.28
2022-09-12T00:58:48.761Z,80.16
2022-09-12T01:01:15.597Z,79.27
2022-09-12T01:03:42.424Z,80.42
2022-09-12T01:06:14.202Z,79.83
2022-09-12T01:08:43.169Z,79.44
2022-09-12T01:11:11.056Z,78.33
2022-09-12T01:13:37.863Z,78.36
2022-09-12T01:16:06.380Z,78.21
2022-09-12T01:19:02.821Z,78.90
2022-09-12T01:21:55.644Z,79.99
2022-09-12T01:24:47.012Z,80.03
2022-09-12T01:27:31.767Z,81.79
2022-09-12T01:30:03.956Z,82.71
2022-09-12T01:32:48.804Z,85.69
2022-09-12T01:35:24.176Z,88.05
2022-09-12T01:38:11.924Z,87.17
2022-09-12T01:40:56.389Z,86.35
2022-09-12T01:43:51.209Z,87.56
2022-09-12T01:46:30.001Z,89.80
2022-09-12T01:49:08.931Z,90.54
2022-09-12T01:52:08.993Z,91.37
2022-09-12T01:54:49.318Z,90.49
2022-09-12T01:57:45.609Z,90.96
2022-09-12T02:00:13.493Z,89.98
2022-09-12T02:02:56.438Z,90.57
2022-09-12T02:05:41.109Z,88.98
2022-09-12T02:08:17.308Z,87.90
2022-09-12T02:10:51.013Z,87.20
2022-09-12T02:13:46.730Z,86.17
2022-09-12T02:16:21.228Z,84.65
2022-09-12T02:18:55.453Z,84.22
2022-09-12T02:21:24.737Z,83.71
2022-09-12T02:23:58.856Z,83.08
2022-09-12T02:26:39.697Z,82.25
2022-09-12T02:29:06.706Z,82.25
2022-09-12T02:31:44.792Z,82.12
2022-09-12T02:34:33.599Z,81.67
2022-09-12T02:37:07.691Z,80.91
2022-09-12T02:39:35.161Z,81.46
2022-09-12T02:42:03.676Z,81.80
2022-09-12T02:44:31.994Z,83.11
2022-09-12T02:47:08.812Z,83.22
2022-09-12T02:49:35.763Z,83.69
2022-09-12T02:52:03.209Z,82.92
2022-09-12T02:54:31.129Z,84.61
2022-09-12T02:56:58.143Z,83.04
2022-09-12T02:59:25.657Z,84.30
2022-09-12T03:02:28.307Z,84.31
2022-09-12T03:05:01.240Z,84.06
2022-09-12T03:07:39.058Z,82.51
2022-09-12T03:10:23.946Z,81.79
2022-09-12T03:12:50.654Z,82.00
2022-09-12T03:15:32.677Z,81.98
2022-09-12T03:18:12.280Z,82.44
2022-09-12T03:20:48.019Z,82.72
2022-09-12T03:23:25.202Z,83.22
2022-09-12T03:25:59.499Z,82.75
2022-09-12T03:28:26.880Z,83.34
2022-09-12T03:30:56.532Z,84.20
2022-09-12T03:33:25.676Z,84.71
2022-09-12T03:35:53.426Z,84.22
2022-09-12T03:38:20.288Z,83.88
2022-09-12T03:40:50.303Z,83.79
2022-09-12T03:43:19.538Z,83.74
2022-09-12T03:45:52.232Z,83.86
2022-09-12T03:48:19.185Z,83.48
2022-09-12T03:50:45.949Z,84.80
2022-09-12T03:53:16.543Z,83.79
2022-09-12T03:55:44.802Z,83.76
2022-09-12T03:58:11.571Z,83.89
2022-09-12T04:00:39.297Z,83.54
2022-09-12T04:03:06.023Z,84.74
2022-09-12T04:05:32.850Z,83.77
2022-09-12T04:07:59.696Z,83.92
2022-09-12T04:10:26.484Z,83.79
2022-09-12T04:12:53.301Z,84.11
2022-09-12T04:15:20.687Z,85.01
2022-09-12T04:17:47.409Z,85.75
2022-09-12T04:20:14.211Z,85.24
2022-09-12T04:22:41.186Z,87.58
2022-09-12T04:25:09.591Z,89.92
2022-09-12T04:27:36.520Z,89.25
2022-09-12T04:30:04.267Z,90.28
2022-09-12T04:32:31.445Z,89.57
2022-09-12T04:34:58.437Z,89.54
2022-09-12T04:37:25.316Z,89.72
2022-09-12T04:39:56.142Z,90.35
2022-09-12T04:42:23.102Z,89.41
2022-09-12T04:44:49.883Z,90.10
2022-09-12T04:47:17.073Z,89.33
2022-09-12T04:49:43.861Z,88.71
2022-09-12T04:52:10.645Z,89.70
2022-09-12T04:54:37.975Z,90.05
2022-09-12T04:57:04.905Z,90.28
2022-09-12T04:59:31.636Z,89.17
2022-09-12T05:01:58.893Z,88.68
2022-09-12T05:04:25.678Z,87.38
2022-09-12T05:06:52.542Z,85.12
2022-09-12T05:09:19.384Z,85.96
2022-09-12T05:12:03.610Z,86.19
2022-09-12T05:14:32.608Z,85.86
2022-09-12T05:17:01.670Z,86.02
2022-09-12T05:19:30.471Z,85.79
2022-09-12T05:21:57.374Z,86.21
2022-09-12T05:24:24.821Z,86.01
2022-09-12T05:26:52.158Z,87.94
2022-09-12T05:29:19.136Z,88.75
2022-09-12T05:31:45.940Z,89.67
2022-09-12T05:34:12.771Z,90.23
2022-09-12T05:36:42.616Z,91.36
2022-09-12T05:39:09.773Z,91.97
2022-09-12T05:41:36.851Z,92.00
2022-09-12T05:44:06.005Z,91.60
2022-09-12T05:46:39.061Z,91.39
2022-09-12T05:49:08.606Z,92.17
2022-09-12T05:51:38.878Z,92.06
2022-09-12T05:54:07.780Z,91.86
2022-09-12T05:56:39.469Z,91.20
2022-09-12T05:59:16.265Z,91.49
2022-09-12T06:01:43.887Z,90.08
2022-09-12T06:04:12.155Z,90.91
2022-09-12T06:06:41.905Z,89.84
2022-09-12T06:09:09.410Z,90.32
2022-09-12T06:11:37.592Z,89.96
2022-09-12T06:14:04.590Z,85.44
2022-09-12T06:16:33.455Z,86.37
2022-09-12T06:19:02.798Z,84.15
2022-09-12T06:21:33.917Z,85.46
2022-09-12T06:24:01.070Z,84.95
2022-09-12T06:26:29.333Z,78.94
2022-09-12T06:28:59.446Z,77.44
2022-09-12T06:31:35.329Z,75.68
2022-09-12T06:34:08.073Z,76.81
2022-09-12T06:36:39.555Z,75.89
2022-09-12T06:39:10.260Z,74.11
2022-09-12T06:41:41.590Z,74.28
2022-09-12T06:44:16.294Z,73.05
2022-09-12T06:46:43.853Z,72.58
2022-09-12T06:49:11.070Z,72.08
2022-09-12T06:51:37.954Z,71.32
2022-09-12T06:54:05.594Z,70.82
2022-09-12T06:56:32.366Z,68.76
2022-09-12T06:58:59.501Z,69.65
2022-09-12T07:01:31.859Z,67.87
2022-09-12T07:04:01.321Z,68.46
2022-09-12T07:06:32.181Z,68.72
2022-09-12T07:09:00.159Z,68.07
2022-09-12T07:11:31.411Z,66.65
2022-09-12T07:14:00.183Z,66.13
2022-09-12T07:16:27.321Z,64.99
2022-09-12T07:18:59.222Z,65.21
2022-09-12T07:21:27.249Z,65.17
2022-09-12T07:23:58.038Z,64.94
2022-09-12T07:26:29.554Z,66.05
2022-09-12T07:29:18.753Z,64.44
2022-09-12T07:31:45.561Z,64.19
2022-09-12T07:34:13.065Z,64.16
2022-09-12T07:36:39.994Z,64.73
2022-09-12T07:39:06.924Z,64.78
2022-09-12T07:41:34.063Z,65.08
2022-09-12T07:44:02.462Z,64.15
2022-09-12T07:46:31.097Z,63.35
2022-09-12T07:48:59.989Z,64.02
2022-09-12T07:51:28.717Z,62.92
2022-09-12T07:53:56.652Z,62.77
2022-09-12T07:56:29.379Z,62.85
2022-09-12T07:58:57.798Z,61.85
2022-09-12T08:01:24.996Z,62.46
2022-09-12T08:03:57.270Z,61.96
2022-09-12T08:06:25.916Z,61.48
2022-09-12T08:08:55.340Z,61.23
2022-09-12T08:11:23.105Z,61.63
2022-09-12T08:13:55.242Z,60.78
2022-09-12T08:16:27.073Z,59.90
2022-09-12T08:18:54.420Z,59.63
2022-09-12T08:21:23.772Z,60.19
2022-09-12T08:23:56.541Z,59.98
2022-09-12T08:26:24.222Z,58.87
2022-09-12T08:28:51.518Z,60.21
2022-09-12T08:31:20.570Z,57.55
2022-09-12T08:33:47.551Z,58.16
2022-09-12T08:36:19.507Z,58.77
2022-09-12T08:38:49.445Z,58.71
2022-09-12T08:41:19.321Z,58.92
2022-09-12T08:43:56.700Z,59.42
2022-09-12T08:46:32.209Z,58.11
2022-09-12T08:49:02.383Z,57.46
2022-09-12T08:51:34.601Z,57.01
2022-09-12T08:54:04.655Z,55.25
2022-09-12T08:56:36.954Z,54.02
2022-09-12T08:59:03.758Z,55.32
2022-09-12T09:01:42.920Z,54.02
2022-09-12T09:04:28.587Z,54.39
2022-09-12T09:07:28.855Z,53.61
2022-09-12T09:10:38.303Z,53.53
2022-09-12T09:13:13.145Z,55.53
2022-09-12T09:16:03.026Z,53.91
2022-09-12T09:18:35.144Z,55.57
2022-09-12T09:21:34.365Z,55.81
2022-09-12T09:24:10.238Z,54.92
2022-09-12T09:26:52.524Z,54.07
2022-09-12T09:29:27.702Z,53.85
2022-09-12T09:31:57.811Z,53.34
2022-09-12T09:34:30.070Z,54.79
2022-09-12T09:37:15.301Z,52.18
2022-09-12T09:40:03.650Z,51.60
2022-09-12T09:43:29.003Z,52.00
2022-09-12T09:46:00.146Z,50.73
2022-09-12T09:48:37.194Z,51.51
2022-09-12T09:51:07.256Z,50.24
2022-09-12T09:53:51.867Z,50.47
2022-09-12T09:56:37.672Z,51.77
2022-09-12T09:59:18.358Z,51.75
2022-09-12T10:01:54.913Z,51.29
2022-09-12T10:04:27.460Z,48.77
2022-09-12T10:06:57.088Z,49.33
2022-09-12T10:09:28.982Z,48.69
2022-09-12T10:11:56.978Z,48.64
2022-09-12T10:14:38.018Z,49.51
2022-09-12T10:17:24.540Z,52.38
2022-09-12T10:20:10.446Z,52.47
2022-09-12T10:22:39.682Z,52.54
2022-09-12T10:25:12.472Z,50.38
2022-09-12T10:27:41.871Z,50.08
2022-09-12T10:30:14.771Z,49.19
2022-09-12T10:32:45.151Z,51.09
2022-09-12T10:35:24.532Z,51.16
2022-09-12T10:38:02.501Z,52.27
2022-09-12T10:40:39.401Z,53.26
2022-09-12T10:43:31.063Z,52.52
2022-09-12T10:45:59.291Z,53.24
2022-09-12T10:48:32.812Z,52.01
2022-09-12T10:51:00.970Z,51.95
2022-09-12T10:53:34.636Z,51.86
2022-09-12T10:56:18.899Z,52.77
2022-09-12T10:59:04.018Z,51.98
2022-09-12T11:01:45.327Z,52.47
2022-09-12T11:04:37.016Z,52.36
2022-09-12T11:07:28.924Z,52.34
2022-09-12T11:10:37.303Z,51.17
2022-09-12T11:13:29.298Z,51.45
2022-09-12T11:16:23.082Z,50.74
2022-09-12T11:19:03.746Z,49.83
2022-09-12T11:22:02.217Z,51.04
2022-09-12T11:24:52.362Z,51.66
2022-09-12T11:27:33.857Z,51.08
2022-09-12T11:30:14.027Z,52.23
2022-09-12T11:33:19.008Z,51.56
2022-09-12T11:35:55.481Z,50.91
2022-09-12T11:38:50.251Z,49.97
2022-09-12T11:41:34.450Z,49.44
2022-09-12T11:44:17.804Z,48.74
2022-09-12T11:46:48.739Z,49.00
2022-09-12T11:49:37.852Z,49.05
2022-09-12T11:52:15.635Z,48.18
2022-09-12T11:54:54.080Z,49.33
2022-09-12T11:57:33.899Z,50.12
2022-09-12T12:00:08.583Z,50.26
2022-09-12T12:02:49.598Z,50.86
2022-09-12T12:05:34.134Z,50.72
2022-09-12T12:08:04.489Z,50.86
2022-09-12T12:10:42.802Z,50.55
2022-09-12T12:13:15.789Z,50.12
2022-09-12T12:15:53.289Z,48.13
2022-09-12T12:18:27.256Z,46.90
2022-09-12T12:20:56.220Z,47.06
2022-09-12T12:23:30.299Z,45.53
2022-09-12T12:25:59.615Z,45.94
2022-09-12T12:28:38.683Z,46.27
2022-09-12T12:31:05.744Z,47.52
2022-09-12T12:33:32.584Z,45.55
2022-09-12T12:36:02.485Z,46.53
2022-09-12T12:38:34.708Z,45.53
2022-09-12T12:41:16.710Z,45.12
2022-09-12T12:43:50.042Z,44.33
2022-09-12T12:46:18.988Z,44.07
2022-09-12T12:49:01.044Z,45.55
2022-09-12T12:51:35.202Z,45.10
2022-09-12T12:54:09.799Z,45.18
2022-09-12T12:56:41.278Z,45.78
2022-09-12T12:59:23.137Z,47.16
2022-09-12T13:01:56.222Z,45.88
2022-09-12T13:04:27.142Z,45.63
2022-09-12T13:07:03.494Z,44.04
2022-09-12T13:09:37.964Z,43.38
2022-09-12T13:12:08.717Z,43.95
2022-09-12T13:14:35.463Z,42.97
2022-09-12T13:17:06.133Z,43.29
2022-09-12T13:19:38.177Z,42.58
2022-09-12T13:22:07.482Z,42.46
2022-09-12T13:24:42.266Z,42.37
2022-09-12T13:27:20.776Z,42.52
2022-09-12T13:29:47.816Z,43.48
2022-09-12T13:32:16.593Z,44.21
2022-09-12T13:35:05.213Z,44.39
2022-09-12T13:37:59.553Z,44.44
2022-09-12T13:40:32.014Z,44.86
2022-09-12T13:43:25.480Z,45.52
2022-09-12T13:45:53.065Z,45.27
2022-09-12T13:48:23.808Z,45.57
2022-09-12T13:51:00.684Z,45.74
2022-09-12T13:53:36.245Z,45.81
2022-09-12T13:56:03.875Z,45.57
2022-09-12T13:58:33.657Z,44.45
2022-09-12T14:01:04.758Z,44.38
2022-09-12T14:03:58.990Z,45.05
2022-09-12T14:06:27.683Z,44.61
2022-09-12T14:09:01.416Z,45.14
2022-09-12T14:11:31.073Z,42.74
2022-09-12T14:13:58.540Z,40.77
2022-09-12T14:16:29.096Z,42.29
2022-09-12T14:18:56.399Z,41.54
2022-09-12T14:21:30.485Z,43.54
2022-09-12T14:23:57.727Z,42.86
2022-09-12T14:26:28.326Z,43.58
2022-09-12T14:28:55.485Z,42.86
2022-09-12T14:31:28.706Z,43.76
2022-09-12T14:34:17.020Z,42.94
2022-09-12T14:36:50.569Z,43.77
2022-09-12T14:39:30.199Z,43.72
2022-09-12T14:42:04.866Z,43.93
2022-09-12T14:44:33.174Z,45.09
2022-09-12T14:47:23.537Z,45.03
2022-09-12T14:49:54.710Z,46.60
2022-09-12T14:52:32.433Z,46.31
2022-09-12T14:55:03.863Z,46.58
2022-09-12T14:57:34.369Z,46.31
2022-09-12T15:00:13.394Z,45.60
2022-09-12T15:02:42.782Z,45.82
2022-09-12T15:07:48.170Z,46.76
2022-09-12T15:10:31.140Z,46.04
2022-09-12T15:13:28.594Z,44.33
2022-09-12T15:15:58.973Z,44.77
2022-09-12T15:18:27.868Z,44.32
2022-09-12T15:21:06.287Z,43.12
2022-09-12T15:23:52.182Z,42.27
2022-09-12T15:26:27.192Z,42.75
2022-09-12T15:28:54.131Z,42.68
2022-09-12T15:31:27.009Z,42.38
2022-09-12T15:33:55.449Z,42.65
2022-09-12T15:36:23.633Z,43.45
2022-09-12T15:38:51.568Z,43.80
2022-09-12T15:41:28.334Z,44.41
2022-09-12T15:43:55.110Z,44.20
2022-09-12T15:46:21.975Z,44.59
2022-09-12T15:48:49.080Z,45.67
2022-09-12T15:51:18.803Z,46.16
2022-09-12T15:53:47.605Z,45.89
2022-09-12T15:56:18.312Z,45.43
2022-09-12T15:58:58.138Z,45.43
2022-09-12T16:01:26.708Z,45.53
2022-09-12T16:03:53.553Z,45.41
2022-09-12T16:06:20.452Z,44.31
2022-09-12T16:08:47.327Z,45.45
2022-09-12T16:11:23.699Z,45.70
2022-09-12T16:13:53.158Z,44.76
2022-09-12T16:16:20.106Z,45.33
2022-09-12T16:18:46.994Z,45.95
2022-09-12T16:21:15.451Z,45.54
2022-09-12T16:23:45.884Z,46.98
2022-09-12T16:26:13.251Z,48.22
2022-09-12T16:28:40.321Z,49.68
2022-09-12T16:31:10.204Z,49.26
2022-09-12T16:33:38.517Z,49.81
2022-09-12T16:36:10.736Z,51.01
2022-09-12T16:38:49.554Z,51.03
2022-09-12T16:41:19.053Z,51.98
2022-09-12T16:43:46.379Z,53.43
2022-09-12T16:46:17.296Z,53.98
2022-09-12T16:48:51.777Z,53.76
2022-09-12T16:51:25.069Z,54.05
2022-09-12T16:53:52.379Z,53.76
2022-09-12T16:56:19.455Z,53.74
2022-09-12T16:58:47.057Z,54.08
2022-09-12T17:01:16.713Z,53.92
2022-09-12T17:03:43.931Z,55.38
2022-09-12T17:06:12.082Z,55.44
2022-09-12T17:08:41.438Z,56.36
2022-09-12T17:11:13.994Z,56.85
2022-09-12T17:14:03.391Z,56.96
2022-09-12T17:16:28.952Z,57.82
2022-09-12T17:18:55.760Z,57.84
2022-09-12T17:21:25.748Z,58.69
2022-09-12T17:23:52.635Z,58.71
2022-09-12T17:26:20.941Z,58.67
2022-09-12T17:28:48.369Z,59.43
2022-09-12T17:31:15.457Z,60.92
2022-09-12T17:33:42.650Z,60.95
2022-09-12T17:36:12.449Z,59.75
2022-09-12T17:38:40.085Z,59.17
2022-09-12T17:41:16.130Z,61.34
2022-09-12T17:43:49.490Z,62.97
2022-09-12T17:46:17.502Z,65.55
2022-09-12T17:48:47.218Z,66.11
2022-09-12T17:51:15.343Z,64.87
2022-09-12T17:53:42.727Z,65.63
2022-09-12T17:56:10.896Z,66.06
2022-09-12T17:58:38.713Z,67.21
2022-09-12T18:01:33.178Z,67.41
2022-09-12T18:04:01.389Z,67.04
2022-09-12T18:06:29.288Z,67.40
2022-09-12T18:08:56.367Z,69.00
2022-09-12T18:11:23.392Z,69.04
2022-09-12T18:13:50.688Z,69.41
2022-09-12T18:16:17.982Z,69.60
2022-09-12T18:18:45.227Z,70.70
2022-09-12T18:21:12.711Z,71.59
2022-09-12T18:23:39.968Z,71.94
2022-09-12T18:26:09.227Z,72.06
2022-09-12T18:28:39.136Z,71.64
2022-09-12T18:31:12.492Z,72.77
2022-09-12T18:33:39.860Z,72.15
2022-09-12T18:36:08.483Z,70.85
2022-09-12T18:38:36.150Z,71.56
2022-09-12T18:41:15.024Z,71.89
2022-09-12T18:43:42.830Z,70.32
2022-09-12T18:46:16.324Z,70.08
2022-09-12T18:48:45.070Z,72.66
2022-09-12T18:51:14.725Z,72.93
2022-09-12T18:53:42.999Z,72.50
2022-09-12T18:56:12.992Z,72.41
2022-09-12T18:58:42.443Z,73.63
2022-09-12T19:01:09.560Z,74.25
2022-09-12T19:03:37.071Z,72.62
2022-09-12T19:06:19.227Z,71.75
2022-09-12T19:08:47.113Z,72.35
2022-09-12T19:11:16.454Z,74.06
2022-09-12T19:13:45.290Z,75.62
2022-09-12T19:16:15.886Z,76.41
2022-09-12T19:18:43.908Z,76.80
2022-09-12T19:21:17.842Z,76.82
2022-09-12T19:23:46.101Z,76.15
2022-09-12T19:26:14.934Z,75.61
2022-09-12T19:28:42.904Z,75.47
2022-09-12T19:31:15.771Z,75.17
2022-09-12T19:33:43.140Z,75.70
2022-09-12T19:36:33.687Z,75.66
2022-09-12T19:39:00.420Z,77.01
2022-09-12T19:41:27.436Z,76.41
2022-09-12T19:43:56.148Z,74.42
2022-09-12T19:46:25.171Z,73.30
2022-09-12T19:48:52.821Z,73.00
2022-09-12T19:51:21.634Z,71.91
2022-09-12T19:53:50.257Z,72.63
2022-09-12T19:56:17.490Z,72.74
2022-09-12T19:58:46.302Z,72.58
2022-09-12T20:01:29.795Z,73.05
2022-09-12T20:03:58.389Z,73.27
2022-09-12T20:06:26.260Z,73.56
2022-09-12T20:08:53.056Z,73.41
2022-09-12T20:11:23.650Z,73.28
2022-09-12T20:13:50.981Z,73.27
2022-09-12T20:16:29.983Z,72.99
2022-09-12T20:19:09.528Z,75.26
2022-09-12T20:21:37.009Z,75.58
2022-09-12T20:24:11.144Z,76.02
2022-09-12T20:26:38.256Z,77.78
2022-09-12T20:29:06.235Z,77.12
2022-09-12T20:31:33.883Z,76.23
2022-09-12T20:34:00.859Z,79.72
2022-09-12T20:36:28.187Z,82.58
2022-09-12T20:38:57.580Z,82.59
2022-09-12T20:41:25.810Z,81.93
2022-09-12T20:43:54.277Z,80.78
2022-09-12T20:46:22.706Z,81.64
2022-09-12T20:48:50.937Z,81.37
2022-09-12T20:51:18.515Z,78.39
2022-09-12T20:53:45.544Z,77.31
2022-09-12T20:56:12.368Z,76.44
2022-09-12T20:58:43.580Z,76.33
2022-09-12T21:01:13.129Z,76.87
2022-09-12T21:03:41.569Z,79.76
2022-09-12T21:06:09.328Z,79.79
2022-09-12T21:08:37.122Z,80.54
2022-09-12T21:11:04.845Z,83.06
2022-09-12T21:13:31.842Z,83.73
2022-09-12T21:15:59.973Z,85.38
2022-09-12T21:18:26.998Z,85.80
2022-09-12T21:20:54.701Z,86.54
2022-09-12T21:23:23.062Z,87.07
2022-09-12T21:25:52.680Z,87.41
2022-09-12T21:28:21.051Z,87.57
2022-09-12T21:30:49.663Z,88.07
2022-09-12T21:33:17.110Z,88.64
2022-09-12T21:35:44.489Z,88.82
2022-09-12T21:38:11.490Z,89.05
2022-09-12T21:40:38.284Z,88.21
2022-09-12T21:43:08.115Z,88.49
2022-09-12T21:45:37.277Z,87.76
2022-09-12T21:48:04.210Z,87.34
2022-09-12T21:50:31.131Z,87.59
2022-09-12T21:52:57.911Z,87.33
2022-09-12T21:55:27.199Z,88.77
2022-09-12T21:57:54.871Z,90.01
2022-09-12T22:00:22.626Z,90.65
2022-09-12T22:02:49.836Z,90.50
2022-09-12T22:05:17.440Z,89.75
2022-09-12T22:07:44.753Z,88.18
2022-09-12T22:10:11.557Z,86.34
2022-09-12T22:12:40.762Z,83.77
2022-09-12T22:15:36.511Z,81.78
2022-09-12T22:17:57.438Z,85.44
2022-09-12T22:20:24.257Z,87.49
2022-09-12T22:23:09.733Z,87.88
2022-09-12T22:25:36.636Z,88.70
2022-09-12T22:28:03.652Z,88.58
2022-09-12T22:30:31.759Z,88.25
2022-09-12T22:32:58.609Z,88.90
2022-09-12T22:35:25.500Z,89.39
2022-09-12T22:37:52.318Z,89.38
2022-09-12T22:40:19.836Z,90.25
2022-09-12T22:42:46.670Z,90.61
2022-09-12T22:45:13.461Z,89.52
2022-09-12T22:47:40.229Z,88.13
2022-09-12T22:50:07.489Z,85.91
2022-09-12T22:52:34.243Z,85.36
2022-09-12T22:55:01.008Z,85.04
2022-09-12T22:57:27.811Z,84.92
2022-09-12T22:59:54.579Z,85.76
2022-09-12T23:02:21.427Z,84.45
2022-09-12T23:04:48.638Z,83.28
2022-09-12T23:07:15.495Z,82.64
2022-09-12T23:09:42.357Z,82.22
2022-09-12T23:12:09.113Z,83.44
2022-09-12T23:14:35.882Z,84.36
2022-09-12T23:17:03.283Z,84.50
2022-09-12T23:19:30.020Z,83.97
2022-09-12T23:21:56.762Z,83.57
2022-09-12T23:24:23.593Z,84.25
2022-09-12T23:26:50.382Z,83.74
2022-09-12T23:29:17.124Z,84.04
2022-09-12T23:31:44.032Z,83.53
2022-09-12T23:34:10.891Z,83.50
2022-09-12T23:36:37.680Z,83.31
2022-09-12T23:39:04.593Z,82.76
2022-09-12T23:41:31.798Z,82.91
2022-09-12T23:43:58.849Z,82.49
2022-09-12T23:46:25.758Z,81.88
2022-09-12T23:48:53.641Z,81.29
2022-09-12T23:51:21.915Z,80.81
2022-09-12T23:53:49.318Z,81.24
2022-09-12T23:56:16.118Z,81.29
2022-09-12T23:58:42.884Z,81.17
